Time;durP1;ratioP1;P1;durP2;ratioP2;P2;SDS_P1;SDS_P2;PMS_P1;PMS_P2;Temp;Humidity;BMP_temperature;BMP_pressure;BME280_temperature;BME280_humidity;BME280_pressure;Samples;Min_cycle;Max_cycle;Signal;HPM_P1;HPM_P2
2023/03/18 00:00:10;;;;;;;5.75;2.17;;;;;14.20;98083.00;;;;5011663;28;20065;-59
2023/03/18 00:02:38;;;;;;;5.75;1.90;;;;;14.20;98088.00;;;;5012044;28;20099;-63
2023/03/18 00:05:07;;;;;;;3.85;2.03;;;;;14.20;98090.00;;;;4997411;28;20054;-62
2023/03/18 00:07:35;;;;;;;3.17;1.33;;;;;14.20;98090.00;;;;5015580;28;20049;-62
2023/03/18 00:10:03;;;;;;;3.38;1.77;;;;;14.20;98094.00;;;;5013040;28;20096;-63
2023/03/18 00:12:32;;;;;;;7.47;2.08;;;;;14.10;98095.00;;;;4996993;28;20062;-63
2023/03/18 00:14:58;;;;;;;5.40;2.03;;;;;14.10;98090.00;;;;4997028;28;20141;-62
2023/03/18 00:17:25;;;;;;;2.88;1.67;;;;;14.00;98098.00;;;;5014579;28;20049;-63
2023/03/18 00:19:52;;;;;;;5.18;1.73;;;;;13.90;98085.00;;;;4996412;28;20050;-63
2023/03/18 00:22:19;;;;;;;3.75;1.80;;;;;13.90;98084.00;;;;5013422;28;20483;-62
2023/03/18 00:24:47;;;;;;;3.40;1.70;;;;;13.80;98089.00;;;;5013179;28;20049;-61
2023/03/18 00:27:14;;;;;;;3.75;1.75;;;;;13.90;98093.00;;;;5012833;28;20143;-62
2023/03/18 00:29:41;;;;;;;3.35;1.73;;;;;13.90;98100.00;;;;5014200;28;20038;-61
2023/03/18 00:32:07;;;;;;;3.08;1.70;;;;;13.80;98110.00;;;;4998174;28;20053;-61
2023/03/18 00:34:34;;;;;;;4.63;2.08;;;;;13.80;98113.00;;;;4998362;28;20041;-60
2023/03/18 00:37:01;;;;;;;3.45;1.75;;;;;13.80;98122.00;;;;4997990;28;20052;-58
2023/03/18 00:39:31;;;;;;;3.95;2.20;;;;;13.70;98116.00;;;;5014901;28;20137;-59
2023/03/18 00:42:00;;;;;;;2.83;1.88;;;;;13.70;98126.00;;;;5015705;28;20510;-62
2023/03/18 00:44:27;;;;;;;4.97;2.03;;;;;13.70;98120.00;;;;5016050;28;20061;-59
2023/03/18 00:46:54;;;;;;;3.53;1.60;;;;;13.60;98122.00;;;;5015121;28;20050;-57
2023/03/18 00:49:21;;;;;;;3.20;1.90;;;;;13.50;98127.00;;;;4997484;28;20140;-60
2023/03/18 00:51:47;;;;;;;3.88;1.80;;;;;13.50;98125.00;;;;5016584;28;20038;-59
2023/03/18 00:54:16;;;;;;;2.90;1.77;;;;;13.50;98126.00;;;;5030645;28;20054;-59
2023/03/18 00:56:43;;;;;;;3.60;1.80;;;;;13.40;98126.00;;;;5012607;28;20053;-59
2023/03/18 00:59:10;;;;;;;4.72;2.05;;;;;13.40;98122.00;;;;5014092;28;20508;-59
2023/03/18 01:01:38;;;;;;;4.18;2.10;;;;;13.40;98109.00;;;;4997645;28;20060;-59
2023/03/18 01:04:05;;;;;;;6.35;2.53;;;;;13.40;98113.00;;;;4998210;28;20528;-59
2023/03/18 01:06:34;;;;;;;6.28;2.05;;;;;13.40;98112.00;;;;4997503;28;20053;-60
2023/03/18 01:09:03;;;;;;;2.90;1.90;;;;;13.40;98119.00;;;;5013267;28;20049;-59
2023/03/18 01:11:30;;;;;;;6.35;2.15;;;;;13.30;98116.00;;;;5013858;28;20054;-59
2023/03/18 01:13:58;;;;;;;4.35;2.03;;;;;13.30;98109.00;;;;4997735;28;20049;-60
2023/03/18 01:16:26;;;;;;;4.40;1.67;;;;;13.30;98108.00;;;;4981221;28;20454;-60
2023/03/18 01:18:53;;;;;;;2.85;1.95;;;;;13.40;98100.00;;;;5014172;28;20046;-61
2023/03/18 01:21:19;;;;;;;4.93;2.15;;;;;13.40;98094.00;;;;4997164;28;20049;-59
2023/03/18 01:23:52;;;;;;;4.35;2.17;;;;;13.30;98088.00;;;;5013448;28;20133;-61
2023/03/18 01:26:18;;;;;;;3.50;2.25;;;;;13.20;98085.00;;;;4997147;28;20046;-61
2023/03/18 01:28:46;;;;;;;3.50;2.20;;;;;13.20;98093.00;;;;4996646;28;20722;-60
2023/03/18 01:31:14;;;;;;;3.25;1.73;;;;;13.20;98086.00;;;;5014777;28;20133;-61
2023/03/18 01:33:43;;;;;;;2.53;1.98;;;;;13.30;98092.00;;;;4996957;28;20042;-61
2023/03/18 01:36:10;;;;;;;4.88;2.08;;;;;13.20;98092.00;;;;4996937;28;20133;-60
2023/03/18 01:38:37;;;;;;;4.63;2.00;;;;;13.20;98092.00;;;;5013923;28;20034;-61
2023/03/18 01:41:10;;;;;;;3.33;1.87;;;;;13.10;98074.00;;;;5013913;28;20044;-60
2023/03/18 01:43:39;;;;;;;6.60;1.70;;;;;13.10;98076.00;;;;4980924;28;20498;-60
2023/03/18 01:46:31;;;;;;;4.60;1.83;;;;;13.00;98075.00;;;;4996878;28;20050;-61
2023/03/18 01:49:01;;;;;;;4.63;2.05;;;;;12.90;98070.00;;;;5012735;28;20439;-61
2023/03/18 01:51:28;;;;;;;3.33;1.83;;;;;12.90;98067.00;;;;5014482;28;20422;-60
2023/03/18 01:53:56;;;;;;;5.70;2.10;;;;;12.80;98073.00;;;;5014280;28;20046;-60
2023/03/18 01:56:23;;;;;;;5.75;2.25;;;;;12.70;98070.00;;;;4996701;28;20050;-60
2023/03/18 01:58:53;;;;;;;3.25;2.10;;;;;12.60;98081.00;;;;5012151;28;20499;-60
2023/03/18 02:01:46;;;;;;;3.33;2.20;;;;;12.60;98066.00;;;;4996177;28;20046;-61
2023/03/18 02:04:14;;;;;;;3.63;2.17;;;;;12.60;98075.00;;;;4996728;28;20549;-60
2023/03/18 02:06:44;;;;;;;2.92;2.15;;;;;12.60;98071.00;;;;4996508;28;20300;-61
2023/03/18 02:09:11;;;;;;;7.50;2.67;;;;;12.60;98081.00;;;;5013326;28;20046;-60
2023/03/18 02:11:42;;;;;;;4.15;2.40;;;;;12.70;98088.00;;;;4996157;28;20561;-60
2023/03/18 02:14:13;;;;;;;4.25;1.98;;;;;12.70;98083.00;;;;4996286;28;20046;-60
2023/03/18 02:16:46;;;;;;;3.92;1.90;;;;;12.70;98084.00;;;;4980325;28;20280;-59
2023/03/18 02:19:38;;;;;;;3.70;2.30;;;;;12.70;98079.00;;;;5011987;28;20069;-59
2023/03/18 02:22:07;;;;;;;3.25;2.42;;;;;12.70;98080.00;;;;4996082;28;20077;-59
2023/03/18 02:24:46;;;;;;;6.57;1.85;;;;;12.60;98081.00;;;;4996348;28;20069;-59
2023/03/18 02:27:25;;;;;;;6.45;2.78;;;;;12.60;98084.00;;;;4996773;28;20046;-60
2023/03/18 02:30:00;;;;;;;6.65;2.15;;;;;12.40;98081.00;;;;5013194;28;20057;-60
2023/03/18 02:32:32;;;;;;;4.90;1.95;;;;;12.30;98072.00;;;;5013135;28;20049;-60
2023/03/18 02:35:04;;;;;;;4.63;1.92;;;;;12.20;98071.00;;;;5014452;28;20117;-61
2023/03/18 02:37:32;;;;;;;3.67;2.08;;;;;12.10;98074.00;;;;4996546;28;20054;-59
2023/03/18 02:40:19;;;;;;;2.85;2.08;;;;;12.00;98073.00;;;;4995587;28;20073;-58
2023/03/18 02:42:47;;;;;;;5.15;2.08;;;;;11.90;98065.00;;;;4996191;28;20384;-58
2023/03/18 02:45:44;;;;;;;5.55;1.80;;;;;12.10;98071.00;;;;5013806;28;20136;-58
2023/03/18 02:48:16;;;;;;;3.70;2.00;;;;;12.20;98070.00;;;;5012314;28;20049;-60
2023/03/18 02:50:44;;;;;;;3.22;2.13;;;;;12.20;98067.00;;;;4995418;28;20046;-58
2023/03/18 02:53:12;;;;;;;3.67;2.42;;;;;12.30;98073.00;;;;5012339;28;20060;-59
2023/03/18 02:55:40;;;;;;;7.53;2.10;;;;;12.30;98079.00;;;;4995619;28;20510;-58
2023/03/18 02:58:08;;;;;;;4.03;2.25;;;;;12.30;98073.00;;;;4995646;28;20072;-60
2023/03/18 03:00:36;;;;;;;4.25;2.45;;;;;12.30;98080.00;;;;4995008;28;20096;-60
2023/03/18 03:03:04;;;;;;;3.00;1.90;;;;;12.20;98086.00;;;;4995340;28;20048;-58
2023/03/18 03:05:33;;;;;;;5.20;1.98;;;;;12.20;98079.00;;;;4995442;28;20046;-59
2023/03/18 03:08:01;;;;;;;2.92;1.77;;;;;12.20;98078.00;;;;5011758;28;20076;-59
2023/03/18 03:10:30;;;;;;;2.58;1.60;;;;;12.20;98082.00;;;;4994910;28;20037;-59
2023/03/18 03:12:58;;;;;;;3.35;1.77;;;;;12.30;98083.00;;;;4995759;28;20462;-60
2023/03/18 03:15:26;;;;;;;2.47;1.42;;;;;12.30;98081.00;;;;4995219;28;20509;-59
2023/03/18 03:17:56;;;;;;;3.83;1.63;;;;;12.30;98078.00;;;;4995133;28;20041;-59
2023/03/18 03:20:23;;;;;;;4.43;1.58;;;;;12.40;98083.00;;;;4994549;28;20050;-59
2023/03/18 03:22:50;;;;;;;3.55;1.73;;;;;12.40;98082.00;;;;4995176;28;20054;-59
2023/03/18 03:25:17;;;;;;;4.15;1.50;;;;;12.40;98088.00;;;;5012725;28;20072;-59
2023/03/18 03:27:43;;;;;;;3.78;1.70;;;;;12.40;98084.00;;;;5012932;28;20491;-58
2023/03/18 03:30:12;;;;;;;2.30;1.80;;;;;12.40;98092.00;;;;5011984;28;20049;-59
2023/03/18 03:32:40;;;;;;;6.70;1.60;;;;;12.40;98090.00;;;;4994959;28;20046;-59
2023/03/18 03:35:12;;;;;;;5.22;2.00;;;;;12.40;98088.00;;;;4979363;28;20084;-60
2023/03/18 03:37:39;;;;;;;3.03;1.80;;;;;12.40;98091.00;;;;5012707;28;20057;-58
2023/03/18 03:40:07;;;;;;;3.80;1.80;;;;;12.40;98091.00;;;;4994417;28;20050;-58
2023/03/18 03:42:33;;;;;;;3.05;1.90;;;;;12.30;98094.00;;;;4994865;28;20054;-59
2023/03/18 03:45:02;;;;;;;4.32;1.60;;;;;12.30;98088.00;;;;4994912;28;20521;-58
2023/03/18 03:47:28;;;;;;;6.63;2.55;;;;;12.30;98085.00;;;;4994871;28;20149;-58
2023/03/18 03:49:55;;;;;;;3.42;1.70;;;;;12.30;98085.00;;;;5011851;28;20046;-58
2023/03/18 03:52:22;;;;;;;4.68;2.10;;;;;12.40;98090.00;;;;4994795;28;20585;-59
2023/03/18 03:54:49;;;;;;;4.65;2.00;;;;;12.40;98096.00;;;;4994706;28;20076;-58
2023/03/18 03:57:17;;;;;;;3.35;1.70;;;;;12.40;98094.00;;;;5012780;28;20479;-58
2023/03/18 03:59:44;;;;;;;4.55;1.67;;;;;12.40;98099.00;;;;4994308;28;20056;-58
2023/03/18 04:02:17;;;;;;;2.88;1.40;;;;;12.50;98107.00;;;;4994620;28;20053;-58
2023/03/18 04:04:45;;;;;;;2.60;1.55;;;;;12.40;98108.00;;;;5013976;28;20046;-59
2023/03/18 04:07:21;;;;;;;4.00;1.80;;;;;12.40;98107.00;;;;4985409;28;20056;-58
2023/03/18 04:09:48;;;;;;;4.35;1.65;;;;;12.40;98111.00;;;;5015758;28;20125;-59
2023/03/18 04:12:17;;;;;;;3.13;1.73;;;;;12.40;98118.00;;;;5016645;28;20448;-59
2023/03/18 04:14:48;;;;;;;3.63;1.77;;;;;12.40;98108.00;;;;4983437;28;20050;-59
2023/03/18 04:17:18;;;;;;;2.42;1.70;;;;;12.40;98113.00;;;;4999111;28;20141;-59
2023/03/18 04:19:45;;;;;;;3.08;1.67;;;;;12.40;98128.00;;;;4998070;28;20057;-59
2023/03/18 04:22:12;;;;;;;4.90;1.75;;;;;12.30;98123.00;;;;5015374;28;20410;-59
2023/03/18 04:24:38;;;;;;;6.22;1.70;;;;;12.30;98123.00;;;;5015464;28;20054;-59
2023/03/18 04:27:05;;;;;;;3.35;1.80;;;;;12.30;98122.00;;;;5016459;28;20053;-59
2023/03/18 04:29:32;;;;;;;3.00;1.67;;;;;12.40;98134.00;;;;5015661;28;20038;-59
2023/03/18 04:32:00;;;;;;;4.68;1.77;;;;;12.50;98131.00;;;;4999293;28;20042;-59
2023/03/18 04:34:27;;;;;;;5.45;1.50;;;;;12.50;98128.00;;;;4982551;28;20061;-59
2023/03/18 04:36:54;;;;;;;3.15;2.03;;;;;12.60;98123.00;;;;5014988;28;20074;-59
2023/03/18 04:39:23;;;;;;;2.83;1.60;;;;;12.60;98130.00;;;;4997942;28;20069;-59
2023/03/18 04:41:49;;;;;;;1.98;1.52;;;;;12.60;98132.00;;;;4998300;28;20056;-59
2023/03/18 04:44:16;;;;;;;5.30;1.65;;;;;12.70;98128.00;;;;5000341;28;20050;-59
2023/03/18 04:46:49;;;;;;;3.35;1.50;;;;;12.70;98131.00;;;;5002261;28;20046;-60
2023/03/18 04:49:16;;;;;;;3.55;1.42;;;;;12.70;98129.00;;;;5004195;28;20125;-59
2023/03/18 04:51:45;;;;;;;3.53;2.08;;;;;12.70;98133.00;;;;5002004;28;20136;-60
2023/03/18 04:54:21;;;;;;;4.45;1.58;;;;;12.70;98134.00;;;;5015272;28;20041;-59
2023/03/18 04:56:50;;;;;;;2.92;1.80;;;;;12.70;98134.00;;;;5016024;28;20134;-60
2023/03/18 04:59:17;;;;;;;2.92;1.63;;;;;12.70;98136.00;;;;5015416;28;20061;-59
2023/03/18 05:01:46;;;;;;;5.07;1.60;;;;;12.70;98135.00;;;;4997703;28;20050;-59
2023/03/18 05:04:14;;;;;;;2.53;1.63;;;;;12.70;98135.00;;;;4998390;28;20057;-59
2023/03/18 05:06:49;;;;;;;5.40;1.33;;;;;12.70;98136.00;;;;4999475;28;20119;-59
2023/03/18 05:09:19;;;;;;;3.10;1.35;;;;;12.70;98128.00;;;;4998152;28;20050;-60
2023/03/18 05:11:46;;;;;;;3.30;1.60;;;;;12.70;98144.00;;;;4999559;28;20089;-60
2023/03/18 05:14:31;;;;;;;4.00;1.60;;;;;12.60;98130.00;;;;5000519;28;20049;-59
2023/03/18 05:16:59;;;;;;;5.20;1.65;;;;;12.60;98130.00;;;;4981048;28;20053;-59
2023/03/18 05:19:27;;;;;;;2.55;1.58;;;;;12.70;98127.00;;;;4997319;28;20056;-60
2023/03/18 05:22:01;;;;;;;2.67;1.40;;;;;12.70;98131.00;;;;4997836;28;20037;-59
2023/03/18 05:24:28;;;;;;;3.03;1.75;;;;;12.70;98146.00;;;;5013797;28;20164;-59
2023/03/18 05:26:55;;;;;;;4.50;2.17;;;;;12.60;98139.00;;;;5015051;28;20594;-59
2023/03/18 05:29:26;;;;;;;3.55;1.88;;;;;12.70;98142.00;;;;5013423;28;20045;-59
2023/03/18 05:32:07;;;;;;;2.65;1.70;;;;;12.60;98138.00;;;;5013916;28;20050;-60
2023/03/18 05:34:37;;;;;;;3.45;1.52;;;;;12.60;98133.00;;;;4997611;28;20545;-59
2023/03/18 05:37:08;;;;;;;3.85;1.58;;;;;12.60;98137.00;;;;4981644;28;20091;-60
2023/03/18 05:39:39;;;;;;;2.42;1.33;;;;;12.50;98138.00;;;;4996792;28;20062;-60
2023/03/18 05:42:10;;;;;;;3.88;1.60;;;;;12.50;98132.00;;;;4982432;28;20052;-60
2023/03/18 05:44:39;;;;;;;3.83;1.85;;;;;12.50;98145.00;;;;5015485;28;20041;-60
2023/03/18 05:47:08;;;;;;;4.13;1.88;;;;;12.40;98135.00;;;;4997671;28;20041;-60
2023/03/18 05:49:44;;;;;;;2.85;1.55;;;;;12.40;98132.00;;;;4996925;28;20049;-60
2023/03/18 05:52:17;;;;;;;3.20;1.45;;;;;12.30;98135.00;;;;5015174;28;20042;-60
2023/03/18 05:54:47;;;;;;;3.13;1.52;;;;;12.30;98141.00;;;;4997349;28;20054;-60
2023/03/18 05:57:18;;;;;;;2.60;1.50;;;;;12.20;98135.00;;;;4996901;28;20041;-60
2023/03/18 05:59:46;;;;;;;3.15;1.90;;;;;12.20;98140.00;;;;4996037;28;20084;-60
2023/03/18 06:02:14;;;;;;;3.40;1.63;;;;;12.10;98132.00;;;;4997130;28;20116;-62
2023/03/18 06:04:43;;;;;;;3.55;2.10;;;;;12.10;98139.00;;;;5001920;28;20077;-64
2023/03/18 06:07:11;;;;;;;2.40;1.50;;;;;12.20;98140.00;;;;5020149;28;20046;-63
2023/03/18 06:09:38;;;;;;;2.45;1.50;;;;;12.10;98144.00;;;;5005169;28;20041;-62
2023/03/18 06:12:06;;;;;;;4.65;1.50;;;;;12.10;98146.00;;;;5006237;28;20053;-61
2023/03/18 06:14:32;;;;;;;5.20;1.92;;;;;12.10;98149.00;;;;5005281;28;20046;-63
2023/03/18 06:17:01;;;;;;;3.65;1.65;;;;;12.10;98148.00;;;;5001724;28;20046;-63
2023/03/18 06:19:29;;;;;;;4.50;1.40;;;;;12.10;98146.00;;;;5018237;28;20112;-62
2023/03/18 06:21:57;;;;;;;6.30;1.60;;;;;12.10;98149.00;;;;4998971;28;20506;-63
2023/03/18 06:24:24;;;;;;;3.13;1.40;;;;;12.20;98156.00;;;;4999845;28;20495;-63
2023/03/18 06:26:51;;;;;;;4.10;1.52;;;;;12.20;98159.00;;;;4998339;28;20104;-62
2023/03/18 06:29:18;;;;;;;6.60;1.58;;;;;12.30;98154.00;;;;4998361;28;20107;-62
2023/03/18 06:31:45;;;;;;;4.80;1.60;;;;;12.30;98154.00;;;;5000016;28;20061;-63
2023/03/18 06:34:18;;;;;;;2.40;1.20;;;;;12.40;98159.00;;;;4983779;28;20038;-61
2023/03/18 06:36:44;;;;;;;3.97;1.40;;;;;12.50;98160.00;;;;5014665;28;20052;-65
2023/03/18 06:39:15;;;;;;;2.85;1.90;;;;;12.60;98164.00;;;;4998708;28;20058;-61
2023/03/18 06:41:42;;;;;;;3.53;1.73;;;;;12.70;98155.00;;;;4998523;28;20088;-62
2023/03/18 06:44:26;;;;;;;3.03;1.45;;;;;12.80;98163.00;;;;4998621;28;20447;-62
2023/03/18 06:46:58;;;;;;;3.00;1.60;;;;;12.80;98163.00;;;;5014912;28;20108;-62
2023/03/18 06:49:26;;;;;;;2.38;1.40;;;;;12.90;98160.00;;;;4999024;28;20100;-61
2023/03/18 06:52:03;;;;;;;4.30;2.28;;;;;13.00;98156.00;;;;4999395;28;20136;-62
2023/03/18 06:54:30;;;;;;;2.42;1.60;;;;;13.00;98155.00;;;;4999579;28;20057;-62
2023/03/18 06:57:00;;;;;;;2.25;1.60;;;;;13.10;98161.00;;;;5000575;28;20172;-63
2023/03/18 06:59:27;;;;;;;3.85;1.50;;;;;13.10;98158.00;;;;5000010;28;20069;-63
2023/03/18 07:01:54;;;;;;;4.13;1.80;;;;;13.10;98165.00;;;;4998638;28;20064;-63
2023/03/18 07:04:22;;;;;;;1.48;1.25;;;;;13.10;98157.00;;;;4998290;28;20449;-62
2023/03/18 07:06:51;;;;;;;2.28;1.40;;;;;13.20;98161.00;;;;4997872;28;20045;-63
2023/03/18 07:09:18;;;;;;;3.15;1.27;;;;;13.30;98156.00;;;;4997264;28;20068;-62
2023/03/18 07:11:50;;;;;;;2.85;1.73;;;;;13.20;98158.00;;;;4997686;28;20041;-62
2023/03/18 07:14:20;;;;;;;2.42;1.42;;;;;13.30;98166.00;;;;5013512;28;20049;-62
2023/03/18 07:16:46;;;;;;;3.20;1.50;;;;;13.40;98157.00;;;;4997121;28;20060;-61
2023/03/18 07:19:14;;;;;;;3.10;1.70;;;;;13.40;98159.00;;;;4996072;28;20060;-62
2023/03/18 07:21:42;;;;;;;2.47;1.50;;;;;13.50;98168.00;;;;4996851;28;20100;-59
2023/03/18 07:24:10;;;;;;;2.88;1.17;;;;;13.60;98175.00;;;;4978817;28;20054;-59
2023/03/18 07:26:37;;;;;;;2.17;1.20;;;;;13.60;98164.00;;;;4995017;28;20387;-59
2023/03/18 07:29:08;;;;;;;3.17;1.52;;;;;13.80;98176.00;;;;4995168;28;20066;-60
2023/03/18 07:31:35;;;;;;;1.70;1.25;;;;;13.90;98174.00;;;;5012669;28;20038;-60
2023/03/18 07:34:03;;;;;;;2.47;1.02;;;;;14.00;98177.00;;;;5012440;28;20392;-60
2023/03/18 07:36:30;;;;;;;5.13;1.40;;;;;14.20;98181.00;;;;5013183;28;20057;-63
2023/03/18 07:38:58;;;;;;;6.25;2.78;;;;;14.20;98168.00;;;;5015088;28;20052;-63
2023/03/18 07:41:25;;;;;;;2.20;1.45;;;;;14.30;98178.00;;;;5017500;28;20222;-63
2023/03/18 07:43:52;;;;;;;4.93;1.20;;;;;14.40;98179.00;;;;4999907;28;20073;-63
2023/03/18 07:46:19;;;;;;;3.30;1.40;;;;;14.50;98181.00;;;;5019161;28;20050;-62
2023/03/18 07:48:46;;;;;;;2.38;1.20;;;;;14.60;98181.00;;;;5017170;28;20230;-61
2023/03/18 07:51:14;;;;;;;3.05;1.48;;;;;14.60;98174.00;;;;4998692;28;20112;-63
2023/03/18 07:53:42;;;;;;;4.03;1.52;;;;;14.60;98186.00;;;;5015145;28;20562;-63
2023/03/18 07:56:11;;;;;;;3.90;1.48;;;;;14.70;98194.00;;;;5015870;28;20037;-64
2023/03/18 07:58:38;;;;;;;5.85;1.55;;;;;14.80;98184.00;;;;5016966;28;20057;-62
2023/03/18 08:01:05;;;;;;;2.45;1.50;;;;;14.90;98183.00;;;;5016241;28;20046;-62
2023/03/18 08:03:31;;;;;;;3.40;1.42;;;;;14.90;98186.00;;;;5001399;28;20448;-62
2023/03/18 08:05:58;;;;;;;5.88;2.50;;;;;15.00;98194.00;;;;5017577;28;20041;-63
2023/03/18 08:08:24;;;;;;;3.08;1.90;;;;;15.10;98192.00;;;;5015221;28;20096;-61
2023/03/18 08:10:55;;;;;;;3.92;1.92;;;;;15.20;98199.00;;;;5015685;28;20034;-63
2023/03/18 08:13:22;;;;;;;5.47;2.17;;;;;15.30;98203.00;;;;4997638;28;20042;-63
2023/03/18 08:15:49;;;;;;;5.25;1.65;;;;;15.30;98204.00;;;;4998323;28;20160;-61
2023/03/18 08:18:15;;;;;;;2.53;1.13;;;;;15.40;98201.00;;;;5015432;28;20041;-62
2023/03/18 08:20:42;;;;;;;3.33;1.10;;;;;15.40;98198.00;;;;5014195;28;20042;-62
2023/03/18 08:23:08;;;;;;;3.25;1.60;;;;;15.50;98201.00;;;;5012809;28;20037;-60
2023/03/18 08:25:35;;;;;;;3.08;1.23;;;;;15.50;98210.00;;;;4996463;28;20491;-60
2023/03/18 08:28:02;;;;;;;2.58;1.40;;;;;15.60;98212.00;;;;5011983;28;20116;-59
2023/03/18 08:30:29;;;;;;;4.70;1.40;;;;;15.60;98212.00;;;;4993788;28;20057;-60
2023/03/18 08:32:56;;;;;;;3.13;1.30;;;;;15.70;98211.00;;;;5012099;28;20099;-59
2023/03/18 08:35:22;;;;;;;5.43;1.63;;;;;15.80;98219.00;;;;5012051;28;20065;-59
2023/03/18 08:37:50;;;;;;;5.72;1.60;;;;;15.80;98226.00;;;;5012005;28;20100;-61
2023/03/18 08:40:17;;;;;;;4.97;1.50;;;;;15.90;98216.00;;;;4994002;28;20505;-59
2023/03/18 08:42:44;;;;;;;2.60;1.17;;;;;15.80;98223.00;;;;5012361;28;20096;-59
2023/03/18 08:45:11;;;;;;;3.65;1.65;;;;;15.90;98227.00;;;;5017579;28;20473;-59
2023/03/18 08:47:38;;;;;;;3.08;1.40;;;;;16.00;98216.00;;;;5016805;28;20053;-59
2023/03/18 08:50:05;;;;;;;1.90;1.55;;;;;16.10;98219.00;;;;5015512;28;20080;-59
2023/03/18 08:52:32;;;;;;;3.20;1.40;;;;;16.20;98225.00;;;;5015592;28;20042;-60
2023/03/18 08:54:59;;;;;;;3.30;1.48;;;;;16.30;98221.00;;;;5015580;28;20092;-60
2023/03/18 08:57:26;;;;;;;1.85;1.33;;;;;16.40;98218.00;;;;5014480;28;20052;-60
2023/03/18 08:59:53;;;;;;;1.98;1.25;;;;;16.50;98212.00;;;;5014727;28;20045;-60
2023/03/18 09:02:20;;;;;;;1.73;1.17;;;;;16.50;98217.00;;;;5014211;28;20111;-59
2023/03/18 09:04:47;;;;;;;3.08;1.25;;;;;16.60;98218.00;;;;5015463;28;20045;-60
2023/03/18 09:07:13;;;;;;;4.20;1.55;;;;;16.60;98214.00;;;;5015327;28;20068;-60
2023/03/18 09:09:42;;;;;;;3.53;1.20;;;;;16.60;98210.00;;;;5015283;28;20045;-59
2023/03/18 09:12:11;;;;;;;3.47;1.40;;;;;16.70;98212.00;;;;5014466;28;20049;-59
2023/03/18 09:14:39;;;;;;;3.60;1.20;;;;;16.60;98207.00;;;;5015216;28;20046;-59
2023/03/18 09:17:06;;;;;;;2.45;1.17;;;;;16.70;98205.00;;;;5015106;28;20050;-60
2023/03/18 09:19:32;;;;;;;2.90;1.38;;;;;16.80;98204.00;;;;5014444;28;20038;-60
2023/03/18 09:21:58;;;;;;;2.83;1.55;;;;;16.80;98196.00;;;;5015073;28;20046;-59
2023/03/18 09:24:25;;;;;;;6.38;1.38;;;;;17.00;98196.00;;;;5014839;28;20125;-59
2023/03/18 09:26:52;;;;;;;3.03;1.60;;;;;17.20;98203.00;;;;5015200;28;20064;-60
2023/03/18 09:29:19;;;;;;;4.20;1.70;;;;;17.30;98197.00;;;;5014475;28;20100;-61
2023/03/18 09:31:45;;;;;;;4.43;1.85;;;;;17.50;98205.00;;;;5014789;28;20083;-61
2023/03/18 09:34:13;;;;;;;3.95;1.52;;;;;17.50;98203.00;;;;5014832;28;20041;-61
2023/03/18 09:36:41;;;;;;;3.40;1.45;;;;;17.60;98204.00;;;;5014724;28;20054;-60
2023/03/18 09:39:07;;;;;;;2.28;1.50;;;;;17.70;98204.00;;;;5014152;28;20062;-60
2023/03/18 09:42:14;;;;;;;4.13;1.58;;;;;17.80;98205.00;;;;5014363;28;20061;-61
2023/03/18 09:44:42;;;;;;;4.75;1.70;;;;;17.80;98201.00;;;;4992174;28;20408;-59
2023/03/18 09:47:24;;;;;;;2.53;1.52;;;;;17.70;98207.00;;;;5014635;28;20045;-60
2023/03/18 09:50:07;;;;;;;1.77;1.30;;;;;17.60;98209.00;;;;4997274;28;20042;-59
2023/03/18 09:52:40;;;;;;;3.83;1.40;;;;;17.60;98200.00;;;;4997480;28;20418;-60
2023/03/18 09:55:10;;;;;;;;;;;;;17.50;98208.00;;;;5015220;28;20058;-61
2023/03/18 09:57:41;;;;;;;2.90;1.42;;;;;17.50;98206.00;;;;5014760;28;20301;-61
2023/03/18 10:00:17;;;;;;;1.73;1.27;;;;;17.50;98210.00;;;;5014338;28;20225;-59
2023/03/18 10:02:49;;;;;;;3.88;1.40;;;;;17.50;98210.00;;;;5014365;28;20073;-59
2023/03/18 10:05:31;;;;;;;5.10;1.50;;;;;17.70;98209.00;;;;5014897;28;20046;-60
2023/03/18 10:08:06;;;;;;;3.28;1.42;;;;;17.80;98211.00;;;;4997509;28;20050;-60
2023/03/18 10:10:39;;;;;;;3.85;1.40;;;;;17.80;98207.00;;;;5014376;28;20038;-59
2023/03/18 10:13:17;;;;;;;2.70;1.40;;;;;17.90;98206.00;;;;5014115;28;20046;-56
2023/03/18 10:15:56;;;;;;;3.30;1.77;;;;;18.00;98202.00;;;;5012785;28;20057;-59
2023/03/18 10:18:36;;;;;;;3.42;1.42;;;;;18.20;98208.00;;;;4996788;28;20053;-58
2023/03/18 10:21:14;;;;;;;3.92;1.90;;;;;18.30;98211.00;;;;4996464;28;20060;-59
2023/03/18 10:23:59;;;;;;;5.95;2.05;;;;;18.30;98222.00;;;;5013855;28;20498;-60
2023/03/18 10:26:38;;;;;;;3.85;1.55;;;;;18.50;98216.00;;;;5013825;28;20061;-57
2023/03/18 10:29:21;;;;;;;3.75;1.83;;;;;18.50;98220.00;;;;4995914;28;20050;-61
2023/03/18 10:32:07;;;;;;;;;;;;;18.50;98221.00;;;;5014539;28;20709;-60
2023/03/18 10:34:54;;;;;;;3.05;1.50;;;;;18.40;98213.00;;;;5012414;28;20337;-60
2023/03/18 10:37:41;;;;;;;3.78;1.88;;;;;18.60;98225.00;;;;4996485;28;20449;-60
2023/03/18 10:40:12;;;;;;;4.20;2.30;;;;;18.90;98210.00;;;;4995249;28;20434;-60
2023/03/18 10:42:40;;;;;;;3.42;1.50;;;;;19.10;98220.00;;;;5013541;28;20049;-61
2023/03/18 10:45:12;;;;;;;4.35;1.40;;;;;19.20;98219.00;;;;4995857;28;20111;-60
2023/03/18 10:47:42;;;;;;;3.80;2.38;;;;;19.30;98224.00;;;;5013416;28;20056;-60
2023/03/18 10:51:03;;;;;;;4.30;1.55;;;;;19.40;98225.00;;;;5013145;28;20525;-60
2023/03/18 10:53:37;;;;;;;3.05;1.55;;;;;19.30;98209.00;;;;4968273;28;20061;-60
2023/03/18 10:56:09;;;;;;;3.63;1.80;;;;;19.40;98207.00;;;;5013695;28;20050;-60
2023/03/18 10:58:40;;;;;;;4.68;1.77;;;;;19.50;98202.00;;;;5013025;28;20045;-59
2023/03/18 11:01:09;;;;;;;3.35;1.35;;;;;19.60;98190.00;;;;5013223;28;20506;-59
2023/03/18 11:03:50;;;;;;;4.18;1.63;;;;;19.60;98197.00;;;;5013397;28;20038;-59
2023/03/18 11:06:24;;;;;;;2.42;1.40;;;;;19.60;98202.00;;;;5013440;28;20046;-59
2023/03/18 11:09:01;;;;;;;3.50;1.77;;;;;19.70;98200.00;;;;5012842;28;20052;-59
2023/03/18 11:11:34;;;;;;;2.72;1.48;;;;;19.70;98197.00;;;;5013509;28;20120;-59
2023/03/18 11:14:03;;;;;;;4.05;1.30;;;;;19.60;98196.00;;;;5013359;28;20406;-59
2023/03/18 11:16:58;;;;;;;3.03;1.48;;;;;19.60;98189.00;;;;5013521;28;20045;-59
2023/03/18 11:19:40;;;;;;;2.75;1.77;;;;;19.80;98197.00;;;;4995024;28;20395;-58
2023/03/18 11:22:20;;;;;;;4.93;1.70;;;;;19.90;98189.00;;;;5013517;28;20038;-59
2023/03/18 11:25:01;;;;;;;2.60;1.45;;;;;19.90;98189.00;;;;5013117;28;20049;-60
2023/03/18 11:27:42;;;;;;;3.13;1.60;;;;;19.90;98189.00;;;;5012656;28;20061;-59
2023/03/18 11:30:20;;;;;;;3.30;1.40;;;;;19.80;98183.00;;;;5012109;28;20137;-59
2023/03/18 11:33:09;;;;;;;4.60;1.60;;;;;19.80;98183.00;;;;5012958;28;20128;-59
2023/03/18 11:35:44;;;;;;;4.03;1.80;;;;;19.90;98176.00;;;;5012826;28;20042;-61
2023/03/18 11:38:17;;;;;;;3.10;1.83;;;;;19.80;98181.00;;;;4996816;28;20053;-60
2023/03/18 11:40:45;;;;;;;5.20;1.73;;;;;19.90;98184.00;;;;4996505;28;20104;-58
2023/03/18 11:43:18;;;;;;;3.20;2.00;;;;;20.10;98184.00;;;;5013071;28;20053;-59
2023/03/18 11:45:51;;;;;;;;;;;;;20.20;98178.00;;;;5015190;28;20050;-60
2023/03/18 11:48:39;;;;;;;3.55;1.83;;;;;20.20;98179.00;;;;4998022;28;19944;-62
2023/03/18 11:51:43;;;;;;;5.18;2.50;;;;;20.30;98183.00;;;;4998525;28;20100;-62
2023/03/18 11:54:39;;;;;;;3.47;1.88;;;;;20.40;98178.00;;;;5003472;28;20053;-62
2023/03/18 11:57:41;;;;;;;3.90;1.60;;;;;20.50;98176.00;;;;5002895;28;20110;-62
2023/03/18 12:00:36;;;;;;;1.85;1.13;;;;;20.60;98175.00;;;;5020366;28;20082;-62
2023/03/18 12:03:30;;;;;;;5.82;1.80;;;;;20.40;98171.00;;;;5020113;28;20049;-63
2023/03/18 12:05:57;;;;;;;5.68;1.80;;;;;20.40;98171.00;;;;5002670;28;20145;-62
2023/03/18 12:08:33;;;;;;;1.55;1.25;;;;;20.40;98173.00;;;;5013901;28;20052;-59
2023/03/18 12:11:15;;;;;;;3.58;1.70;;;;;20.50;98169.00;;;;5012257;28;20045;-60
2023/03/18 12:14:02;;;;;;;1.90;1.30;;;;;20.40;98168.00;;;;5012268;28;20494;-60
2023/03/18 12:16:44;;;;;;;4.03;1.65;;;;;20.50;98165.00;;;;5012185;28;20425;-60
2023/03/18 12:19:26;;;;;;;2.50;1.40;;;;;20.50;98163.00;;;;4994120;28;20046;-61
2023/03/18 12:22:15;;;;;;;4.05;1.95;;;;;20.70;98164.00;;;;5012384;28;20383;-59
2023/03/18 12:25:06;;;;;;;4.10;1.60;;;;;20.70;98169.00;;;;5013624;28;20038;-60
2023/03/18 12:28:23;;;;;;;3.00;1.63;;;;;20.60;98155.00;;;;5016266;28;20049;-59
2023/03/18 12:31:23;;;;;;;3.35;1.98;;;;;20.40;98159.00;;;;4958178;28;20054;-61
2023/03/18 12:33:50;;;;;;;4.43;1.88;;;;;20.30;98157.00;;;;4998247;28;20080;-60
2023/03/18 12:36:43;;;;;;;3.58;1.55;;;;;20.40;98149.00;;;;5015920;28;20049;-60
2023/03/18 12:39:13;;;;;;;5.97;2.00;;;;;20.30;98149.00;;;;5015212;28;20491;-60